sensor_id;sensor_type;location;lat;lon;timestamp;P1;durP1;ratioP1;P2;durP2;ratioP2
41293;SDS011;27037;52.010;4.446;2022-10-16T00:00:36;6.88;;;1.80;;
41293;SDS011;27037;52.010;4.446;2022-10-16T00:03:03;5.57;;;1.80;;
41293;SDS011;27037;52.010;4.446;2022-10-16T00:05:29;1.88;;;1.20;;
41293;SDS011;27037;52.010;4.446;2022-10-16T00:07:55;4.47;;;1.20;;
41293;SDS011;27037;52.010;4.446;2022-10-16T00:10:21;5.28;;;1.40;;
41293;SDS011;27037;52.010;4.446;2022-10-16T00:12:47;4.97;;;1.40;;
41293;SDS011;27037;52.010;4.446;2022-10-16T00:15:12;3.83;;;1.40;;
41293;SDS011;27037;52.010;4.446;2022-10-16T00:17:38;3.53;;;1.33;;
41293;SDS011;27037;52.010;4.446;2022-10-16T00:20:04;4.43;;;1.15;;
41293;SDS011;27037;52.010;4.446;2022-10-16T00:22:30;4.88;;;0.88;;
41293;SDS011;27037;52.010;4.446;2022-10-16T00:24:56;1.85;;;1.08;;
41293;SDS011;27037;52.010;4.446;2022-10-16T00:27:21;5.10;;;1.13;;
41293;SDS011;27037;52.010;4.446;2022-10-16T00:29:51;3.33;;;0.90;;
41293;SDS011;27037;52.010;4.446;2022-10-16T00:32:17;4.50;;;1.13;;
41293;SDS011;27037;52.010;4.446;2022-10-16T00:34:44;3.17;;;0.88;;
41293;SDS011;27037;52.010;4.446;2022-10-16T00:37:10;1.20;;;0.98;;
41293;SDS011;27037;52.010;4.446;2022-10-16T00:39:35;1.45;;;0.60;;
41293;SDS011;27037;52.010;4.446;2022-10-16T00:42:01;2.53;;;0.90;;
41293;SDS011;27037;52.010;4.446;2022-10-16T00:50:10;5.38;;;0.90;;
41293;SDS011;27037;52.010;4.446;2022-10-16T00:52:45;2.15;;;0.88;;
41293;SDS011;27037;52.010;4.446;2022-10-16T00:55:13;1.95;;;1.08;;
41293;SDS011;27037;52.010;4.446;2022-10-16T00:57:39;5.47;;;1.40;;
41293;SDS011;27037;52.010;4.446;2022-10-16T01:00:06;4.43;;;1.10;;
41293;SDS011;27037;52.010;4.446;2022-10-16T01:02:33;2.25;;;1.00;;
41293;SDS011;27037;52.010;4.446;2022-10-16T01:04:59;3.08;;;1.10;;
41293;SDS011;27037;52.010;4.446;2022-10-16T01:20:59;2.13;;;1.38;;
41293;SDS011;27037;52.010;4.446;2022-10-16T01:23:38;3.40;;;1.45;;
41293;SDS011;27037;52.010;4.446;2022-10-16T01:31:25;5.38;;;1.40;;
41293;SDS011;27037;52.010;4.446;2022-10-16T01:34:00;4.13;;;1.27;;
41293;SDS011;27037;52.010;4.446;2022-10-16T01:36:31;3.20;;;1.50;;
41293;SDS011;27037;52.010;4.446;2022-10-16T01:39:04;4.00;;;1.55;;
41293;SDS011;27037;52.010;4.446;2022-10-16T01:41:33;3.80;;;1.33;;
41293;SDS011;27037;52.010;4.446;2022-10-16T01:44:09;3.80;;;1.40;;
41293;SDS011;27037;52.010;4.446;2022-10-16T01:46:41;4.93;;;1.48;;
41293;SDS011;27037;52.010;4.446;2022-10-16T01:49:10;2.15;;;1.10;;
41293;SDS011;27037;52.010;4.446;2022-10-16T01:51:37;2.25;;;1.23;;
41293;SDS011;27037;52.010;4.446;2022-10-16T01:54:04;4.05;;;1.30;;
41293;SDS011;27037;52.010;4.446;2022-10-16T01:56:32;4.22;;;1.90;;
41293;SDS011;27037;52.010;4.446;2022-10-16T01:59:02;3.13;;;1.40;;
41293;SDS011;27037;52.010;4.446;2022-10-16T02:01:32;2.83;;;1.45;;
41293;SDS011;27037;52.010;4.446;2022-10-16T02:04:09;1.85;;;1.48;;
41293;SDS011;27037;52.010;4.446;2022-10-16T02:06:40;3.40;;;1.70;;
41293;SDS011;27037;52.010;4.446;2022-10-16T02:09:06;2.70;;;1.75;;
41293;SDS011;27037;52.010;4.446;2022-10-16T02:11:32;5.53;;;2.08;;
41293;SDS011;27037;52.010;4.446;2022-10-16T02:14:01;5.03;;;2.00;;
41293;SDS011;27037;52.010;4.446;2022-10-16T02:16:36;5.68;;;2.10;;
41293;SDS011;27037;52.010;4.446;2022-10-16T02:19:07;3.25;;;1.80;;
41293;SDS011;27037;52.010;4.446;2022-10-16T02:21:39;4.95;;;2.13;;
41293;SDS011;27037;52.010;4.446;2022-10-16T02:24:08;3.97;;;1.88;;
41293;SDS011;27037;52.010;4.446;2022-10-16T02:29:28;4.35;;;2.03;;
41293;SDS011;27037;52.010;4.446;2022-10-16T02:32:01;6.35;;;2.20;;
41293;SDS011;27037;52.010;4.446;2022-10-16T02:34:29;7.15;;;2.47;;
41293;SDS011;27037;52.010;4.446;2022-10-16T02:36:56;5.07;;;1.98;;
41293;SDS011;27037;52.010;4.446;2022-10-16T02:39:24;4.13;;;2.10;;
41293;SDS011;27037;52.010;4.446;2022-10-16T02:41:53;6.38;;;1.92;;
41293;SDS011;27037;52.010;4.446;2022-10-16T02:44:18;6.63;;;1.80;;
41293;SDS011;27037;52.010;4.446;2022-10-16T02:46:44;4.72;;;1.95;;
41293;SDS011;27037;52.010;4.446;2022-10-16T02:49:09;5.95;;;1.80;;
41293;SDS011;27037;52.010;4.446;2022-10-16T02:51:35;3.15;;;1.60;;
41293;SDS011;27037;52.010;4.446;2022-10-16T02:54:01;7.80;;;2.10;;
41293;SDS011;27037;52.010;4.446;2022-10-16T02:56:27;5.43;;;2.15;;
41293;SDS011;27037;52.010;4.446;2022-10-16T02:58:54;6.32;;;2.00;;
41293;SDS011;27037;52.010;4.446;2022-10-16T03:01:20;4.03;;;1.63;;
41293;SDS011;27037;52.010;4.446;2022-10-16T03:03:46;3.35;;;1.85;;
41293;SDS011;27037;52.010;4.446;2022-10-16T03:06:11;6.80;;;1.45;;
41293;SDS011;27037;52.010;4.446;2022-10-16T03:08:37;4.05;;;1.50;;
41293;SDS011;27037;52.010;4.446;2022-10-16T03:11:02;6.43;;;1.75;;
41293;SDS011;27037;52.010;4.446;2022-10-16T03:13:28;5.78;;;1.73;;
41293;SDS011;27037;52.010;4.446;2022-10-16T03:15:54;7.82;;;1.60;;
41293;SDS011;27037;52.010;4.446;2022-10-16T03:18:19;4.00;;;1.50;;
41293;SDS011;27037;52.010;4.446;2022-10-16T03:20:45;5.28;;;1.60;;
41293;SDS011;27037;52.010;4.446;2022-10-16T03:23:10;7.10;;;1.80;;
41293;SDS011;27037;52.010;4.446;2022-10-16T03:25:36;8.13;;;1.80;;
41293;SDS011;27037;52.010;4.446;2022-10-16T03:28:02;4.40;;;1.63;;
41293;SDS011;27037;52.010;4.446;2022-10-16T03:30:28;5.80;;;1.63;;
41293;SDS011;27037;52.010;4.446;2022-10-16T03:32:54;4.88;;;1.92;;
41293;SDS011;27037;52.010;4.446;2022-10-16T03:35:22;2.72;;;1.35;;
41293;SDS011;27037;52.010;4.446;2022-10-16T03:37:49;4.40;;;1.60;;
41293;SDS011;27037;52.010;4.446;2022-10-16T03:40:15;3.90;;;1.50;;
41293;SDS011;27037;52.010;4.446;2022-10-16T03:42:44;8.32;;;1.40;;
41293;SDS011;27037;52.010;4.446;2022-10-16T03:45:10;6.90;;;1.67;;
41293;SDS011;27037;52.010;4.446;2022-10-16T03:47:36;5.60;;;1.50;;
41293;SDS011;27037;52.010;4.446;2022-10-16T03:50:02;6.53;;;2.00;;
41293;SDS011;27037;52.010;4.446;2022-10-16T03:52:28;4.65;;;1.38;;
41293;SDS011;27037;52.010;4.446;2022-10-16T03:54:54;3.38;;;1.58;;
41293;SDS011;27037;52.010;4.446;2022-10-16T03:57:19;5.40;;;1.75;;
41293;SDS011;27037;52.010;4.446;2022-10-16T03:59:45;8.88;;;1.85;;
41293;SDS011;27037;52.010;4.446;2022-10-16T04:02:11;7.18;;;1.83;;
41293;SDS011;27037;52.010;4.446;2022-10-16T04:04:36;5.35;;;1.63;;
41293;SDS011;27037;52.010;4.446;2022-10-16T04:07:02;4.10;;;1.60;;
41293;SDS011;27037;52.010;4.446;2022-10-16T04:09:27;5.32;;;1.65;;
41293;SDS011;27037;52.010;4.446;2022-10-16T04:11:53;4.28;;;1.70;;
41293;SDS011;27037;52.010;4.446;2022-10-16T04:14:19;6.60;;;1.83;;
41293;SDS011;27037;52.010;4.446;2022-10-16T04:16:44;6.25;;;1.80;;
41293;SDS011;27037;52.010;4.446;2022-10-16T04:19:10;4.10;;;2.00;;
41293;SDS011;27037;52.010;4.446;2022-10-16T04:21:36;9.43;;;1.80;;
41293;SDS011;27037;52.010;4.446;2022-10-16T04:24:02;4.80;;;1.70;;
41293;SDS011;27037;52.010;4.446;2022-10-16T04:26:28;4.53;;;1.90;;
41293;SDS011;27037;52.010;4.446;2022-10-16T04:28:54;5.68;;;1.52;;
41293;SDS011;27037;52.010;4.446;2022-10-16T04:31:20;5.40;;;1.63;;
41293;SDS011;27037;52.010;4.446;2022-10-16T04:33:46;6.53;;;1.65;;
41293;SDS011;27037;52.010;4.446;2022-10-16T04:36:12;4.38;;;1.77;;
41293;SDS011;27037;52.010;4.446;2022-10-16T04:38:38;4.95;;;1.70;;
41293;SDS011;27037;52.010;4.446;2022-10-16T04:41:05;3.92;;;1.65;;
41293;SDS011;27037;52.010;4.446;2022-10-16T04:43:31;6.88;;;1.85;;
41293;SDS011;27037;52.010;4.446;2022-10-16T04:45:57;4.90;;;1.42;;
41293;SDS011;27037;52.010;4.446;2022-10-16T04:48:23;5.15;;;1.73;;
41293;SDS011;27037;52.010;4.446;2022-10-16T04:50:48;3.67;;;1.58;;
41293;SDS011;27037;52.010;4.446;2022-10-16T04:53:14;6.13;;;1.50;;
41293;SDS011;27037;52.010;4.446;2022-10-16T04:55:40;2.53;;;1.65;;
41293;SDS011;27037;52.010;4.446;2022-10-16T04:58:07;7.93;;;1.73;;
41293;SDS011;27037;52.010;4.446;2022-10-16T05:00:33;6.05;;;1.90;;
41293;SDS011;27037;52.010;4.446;2022-10-16T05:02:59;7.55;;;2.10;;
41293;SDS011;27037;52.010;4.446;2022-10-16T05:05:26;3.83;;;1.60;;
41293;SDS011;27037;52.010;4.446;2022-10-16T05:07:52;5.50;;;2.35;;
41293;SDS011;27037;52.010;4.446;2022-10-16T05:10:18;9.10;;;2.20;;
41293;SDS011;27037;52.010;4.446;2022-10-16T05:12:44;8.27;;;2.40;;
41293;SDS011;27037;52.010;4.446;2022-10-16T05:15:10;6.82;;;2.42;;
41293;SDS011;27037;52.010;4.446;2022-10-16T05:17:35;8.13;;;2.67;;
41293;SDS011;27037;52.010;4.446;2022-10-16T05:20:01;7.70;;;2.40;;
41293;SDS011;27037;52.010;4.446;2022-10-16T05:22:28;12.50;;;2.33;;
41293;SDS011;27037;52.010;4.446;2022-10-16T05:24:54;6.10;;;2.35;;
41293;SDS011;27037;52.010;4.446;2022-10-16T05:27:19;6.63;;;2.45;;
41293;SDS011;27037;52.010;4.446;2022-10-16T05:29:45;6.20;;;2.47;;
41293;SDS011;27037;52.010;4.446;2022-10-16T05:32:12;5.43;;;2.50;;
41293;SDS011;27037;52.010;4.446;2022-10-16T05:34:41;5.28;;;2.30;;
41293;SDS011;27037;52.010;4.446;2022-10-16T05:37:07;6.70;;;2.50;;
41293;SDS011;27037;52.010;4.446;2022-10-16T05:39:33;8.80;;;2.67;;
41293;SDS011;27037;52.010;4.446;2022-10-16T05:41:58;7.35;;;2.67;;
41293;SDS011;27037;52.010;4.446;2022-10-16T05:44:24;6.72;;;2.70;;
41293;SDS011;27037;52.010;4.446;2022-10-16T05:46:49;7.55;;;2.53;;
41293;SDS011;27037;52.010;4.446;2022-10-16T05:49:15;9.38;;;2.60;;
41293;SDS011;27037;52.010;4.446;2022-10-16T05:51:41;6.43;;;2.63;;
41293;SDS011;27037;52.010;4.446;2022-10-16T05:54:07;6.70;;;2.75;;
41293;SDS011;27037;52.010;4.446;2022-10-16T05:56:33;7.10;;;2.78;;
41293;SDS011;27037;52.010;4.446;2022-10-16T05:58:58;4.88;;;2.40;;
41293;SDS011;27037;52.010;4.446;2022-10-16T06:01:24;9.15;;;2.58;;
41293;SDS011;27037;52.010;4.446;2022-10-16T06:03:50;9.77;;;2.55;;
41293;SDS011;27037;52.010;4.446;2022-10-16T06:06:21;5.93;;;2.20;;
41293;SDS011;27037;52.010;4.446;2022-10-16T06:08:48;8.32;;;2.30;;
41293;SDS011;27037;52.010;4.446;2022-10-16T06:11:18;10.23;;;2.58;;
41293;SDS011;27037;52.010;4.446;2022-10-16T06:13:48;6.75;;;2.20;;
41293;SDS011;27037;52.010;4.446;2022-10-16T06:16:18;7.30;;;2.00;;
41293;SDS011;27037;52.010;4.446;2022-10-16T06:18:44;7.10;;;1.90;;
41293;SDS011;27037;52.010;4.446;2022-10-16T06:21:11;8.85;;;2.63;;
41293;SDS011;27037;52.010;4.446;2022-10-16T06:23:45;9.90;;;2.28;;
41293;SDS011;27037;52.010;4.446;2022-10-16T06:26:14;10.18;;;1.85;;
41293;SDS011;27037;52.010;4.446;2022-10-16T06:28:42;10.50;;;2.08;;
41293;SDS011;27037;52.010;4.446;2022-10-16T06:31:09;10.18;;;2.00;;
41293;SDS011;27037;52.010;4.446;2022-10-16T06:33:36;11.02;;;2.10;;
41293;SDS011;27037;52.010;4.446;2022-10-16T06:36:03;9.52;;;1.88;;
41293;SDS011;27037;52.010;4.446;2022-10-16T06:38:29;7.82;;;1.75;;
41293;SDS011;27037;52.010;4.446;2022-10-16T06:40:55;7.25;;;1.70;;
41293;SDS011;27037;52.010;4.446;2022-10-16T06:43:21;10.02;;;2.25;;
41293;SDS011;27037;52.010;4.446;2022-10-16T06:45:56;7.32;;;1.80;;
41293;SDS011;27037;52.010;4.446;2022-10-16T06:48:22;6.88;;;1.80;;
41293;SDS011;27037;52.010;4.446;2022-10-16T06:50:58;8.48;;;2.03;;
41293;SDS011;27037;52.010;4.446;2022-10-16T06:53:25;7.40;;;1.90;;
41293;SDS011;27037;52.010;4.446;2022-10-16T06:55:51;6.97;;;1.60;;
41293;SDS011;27037;52.010;4.446;2022-10-16T06:58:17;6.60;;;2.30;;
41293;SDS011;27037;52.010;4.446;2022-10-16T07:00:43;4.72;;;1.83;;
41293;SDS011;27037;52.010;4.446;2022-10-16T07:03:09;7.38;;;1.85;;
41293;SDS011;27037;52.010;4.446;2022-10-16T07:05:41;8.88;;;2.00;;
41293;SDS011;27037;52.010;4.446;2022-10-16T07:08:07;7.18;;;2.17;;
41293;SDS011;27037;52.010;4.446;2022-10-16T07:10:33;6.85;;;2.10;;
41293;SDS011;27037;52.010;4.446;2022-10-16T07:12:59;13.65;;;2.65;;
41293;SDS011;27037;52.010;4.446;2022-10-16T07:15:25;7.93;;;2.10;;
41293;SDS011;27037;52.010;4.446;2022-10-16T07:17:51;9.90;;;2.20;;
41293;SDS011;27037;52.010;4.446;2022-10-16T07:20:17;9.20;;;2.47;;
41293;SDS011;27037;52.010;4.446;2022-10-16T07:22:43;14.40;;;2.55;;
41293;SDS011;27037;52.010;4.446;2022-10-16T07:25:08;11.65;;;2.40;;
41293;SDS011;27037;52.010;4.446;2022-10-16T07:27:34;11.32;;;2.60;;
41293;SDS011;27037;52.010;4.446;2022-10-16T07:30:00;11.95;;;2.60;;
41293;SDS011;27037;52.010;4.446;2022-10-16T07:32:25;7.43;;;2.25;;
41293;SDS011;27037;52.010;4.446;2022-10-16T07:34:51;8.02;;;2.25;;
41293;SDS011;27037;52.010;4.446;2022-10-16T07:37:17;12.35;;;2.42;;
41293;SDS011;27037;52.010;4.446;2022-10-16T07:39:43;5.05;;;1.98;;
41293;SDS011;27037;52.010;4.446;2022-10-16T07:42:08;7.90;;;2.00;;
41293;SDS011;27037;52.010;4.446;2022-10-16T07:44:34;9.70;;;2.33;;
41293;SDS011;27037;52.010;4.446;2022-10-16T07:47:00;13.45;;;2.75;;
41293;SDS011;27037;52.010;4.446;2022-10-16T07:49:26;13.02;;;2.33;;
41293;SDS011;27037;52.010;4.446;2022-10-16T07:51:52;9.30;;;2.60;;
41293;SDS011;27037;52.010;4.446;2022-10-16T07:54:17;16.65;;;2.72;;
41293;SDS011;27037;52.010;4.446;2022-10-16T07:56:43;12.45;;;2.42;;
41293;SDS011;27037;52.010;4.446;2022-10-16T07:59:08;12.02;;;2.78;;
41293;SDS011;27037;52.010;4.446;2022-10-16T08:01:34;12.80;;;2.70;;
41293;SDS011;27037;52.010;4.446;2022-10-16T08:04:00;6.10;;;1.90;;
41293;SDS011;27037;52.010;4.446;2022-10-16T08:06:25;8.52;;;2.05;;
41293;SDS011;27037;52.010;4.446;2022-10-16T08:08:51;8.65;;;2.15;;
41293;SDS011;27037;52.010;4.446;2022-10-16T08:11:16;10.65;;;2.25;;
41293;SDS011;27037;52.010;4.446;2022-10-16T08:13:42;12.07;;;2.45;;
41293;SDS011;27037;52.010;4.446;2022-10-16T08:16:08;11.70;;;2.53;;
41293;SDS011;27037;52.010;4.446;2022-10-16T08:18:35;13.77;;;2.53;;
41293;SDS011;27037;52.010;4.446;2022-10-16T08:21:02;13.25;;;2.50;;
41293;SDS011;27037;52.010;4.446;2022-10-16T08:23:28;12.05;;;2.50;;
41293;SDS011;27037;52.010;4.446;2022-10-16T08:25:54;9.65;;;2.15;;
41293;SDS011;27037;52.010;4.446;2022-10-16T08:28:21;11.20;;;2.28;;
41293;SDS011;27037;52.010;4.446;2022-10-16T08:30:47;11.07;;;2.40;;
41293;SDS011;27037;52.010;4.446;2022-10-16T08:33:13;10.10;;;2.58;;
41293;SDS011;27037;52.010;4.446;2022-10-16T08:35:38;14.00;;;2.40;;
41293;SDS011;27037;52.010;4.446;2022-10-16T08:38:04;11.05;;;2.40;;
41293;SDS011;27037;52.010;4.446;2022-10-16T08:40:31;14.07;;;2.45;;
41293;SDS011;27037;52.010;4.446;2022-10-16T08:45:44;15.63;;;2.33;;
41293;SDS011;27037;52.010;4.446;2022-10-16T08:51:38;12.07;;;2.40;;
41293;SDS011;27037;52.010;4.446;2022-10-16T08:54:03;13.65;;;2.40;;
41293;SDS011;27037;52.010;4.446;2022-10-16T08:56:31;16.50;;;2.53;;
41293;SDS011;27037;52.010;4.446;2022-10-16T08:58:58;10.52;;;2.38;;
41293;SDS011;27037;52.010;4.446;2022-10-16T09:01:25;10.65;;;2.22;;
41293;SDS011;27037;52.010;4.446;2022-10-16T09:17:30;14.98;;;1.98;;
41293;SDS011;27037;52.010;4.446;2022-10-16T09:20:31;10.15;;;2.08;;
41293;SDS011;27037;52.010;4.446;2022-10-16T09:25:30;14.10;;;2.13;;
41293;SDS011;27037;52.010;4.446;2022-10-16T09:27:57;12.25;;;1.95;;
41293;SDS011;27037;52.010;4.446;2022-10-16T09:30:22;22.15;;;7.10;;
41293;SDS011;27037;52.010;4.446;2022-10-16T09:32:54;33.92;;;16.30;;
41293;SDS011;27037;52.010;4.446;2022-10-16T09:35:22;23.67;;;8.70;;
41293;SDS011;27037;52.010;4.446;2022-10-16T09:38:08;16.25;;;2.88;;
41293;SDS011;27037;52.010;4.446;2022-10-16T09:40:56;15.00;;;3.63;;
41293;SDS011;27037;52.010;4.446;2022-10-16T09:48:51;16.63;;;2.63;;
41293;SDS011;27037;52.010;4.446;2022-10-16T09:51:27;11.25;;;2.30;;
41293;SDS011;27037;52.010;4.446;2022-10-16T09:53:58;11.82;;;2.30;;
41293;SDS011;27037;52.010;4.446;2022-10-16T09:56:29;13.27;;;2.10;;
41293;SDS011;27037;52.010;4.446;2022-10-16T09:58:58;15.02;;;2.17;;
41293;SDS011;27037;52.010;4.446;2022-10-16T10:01:38;13.82;;;2.00;;
41293;SDS011;27037;52.010;4.446;2022-10-16T10:04:05;14.77;;;2.10;;
41293;SDS011;27037;52.010;4.446;2022-10-16T10:06:36;10.88;;;2.22;;
41293;SDS011;27037;52.010;4.446;2022-10-16T10:09:29;16.10;;;2.50;;
41293;SDS011;27037;52.010;4.446;2022-10-16T10:12:02;11.82;;;1.90;;
41293;SDS011;27037;52.010;4.446;2022-10-16T10:14:43;13.68;;;2.20;;
41293;SDS011;27037;52.010;4.446;2022-10-16T10:17:13;14.05;;;2.08;;
41293;SDS011;27037;52.010;4.446;2022-10-16T10:20:44;12.13;;;2.40;;
41293;SDS011;27037;52.010;4.446;2022-10-16T10:22:47;19.92;;;2.75;;
41293;SDS011;27037;52.010;4.446;2022-10-16T10:30:22;7.80;;;2.00;;
41293;SDS011;27037;52.010;4.446;2022-10-16T10:46:56;14.70;;;2.60;;
41293;SDS011;27037;52.010;4.446;2022-10-16T10:54:51;20.05;;;3.03;;
41293;SDS011;27037;52.010;4.446;2022-10-16T11:00:03;15.98;;;2.85;;
41293;SDS011;27037;52.010;4.446;2022-10-16T11:02:50;14.05;;;1.90;;
41293;SDS011;27037;52.010;4.446;2022-10-16T11:10:44;13.93;;;2.25;;
41293;SDS011;27037;52.010;4.446;2022-10-16T11:13:55;15.80;;;2.08;;
41293;SDS011;27037;52.010;4.446;2022-10-16T11:21:47;9.03;;;1.77;;
41293;SDS011;27037;52.010;4.446;2022-10-16T11:24:36;12.70;;;1.77;;
41293;SDS011;27037;52.010;4.446;2022-10-16T11:27:40;12.05;;;1.75;;
41293;SDS011;27037;52.010;4.446;2022-10-16T11:30:30;16.13;;;2.47;;
41293;SDS011;27037;52.010;4.446;2022-10-16T11:38:17;12.38;;;2.08;;
41293;SDS011;27037;52.010;4.446;2022-10-16T11:40:53;11.05;;;2.00;;
41293;SDS011;27037;52.010;4.446;2022-10-16T11:43:29;15.55;;;2.40;;
41293;SDS011;27037;52.010;4.446;2022-10-16T11:46:04;13.82;;;2.15;;
41293;SDS011;27037;52.010;4.446;2022-10-16T11:48:39;12.90;;;2.27;;
41293;SDS011;27037;52.010;4.446;2022-10-16T11:51:44;11.35;;;1.88;;
41293;SDS011;27037;52.010;4.446;2022-10-16T11:54:22;17.38;;;2.78;;
41293;SDS011;27037;52.010;4.446;2022-10-16T11:57:03;19.13;;;2.42;;
41293;SDS011;27037;52.010;4.446;2022-10-16T12:08:02;14.80;;;2.05;;
41293;SDS011;27037;52.010;4.446;2022-10-16T12:10:32;11.35;;;1.70;;
41293;SDS011;27037;52.010;4.446;2022-10-16T12:13:02;13.27;;;2.00;;
41293;SDS011;27037;52.010;4.446;2022-10-16T12:15:32;11.63;;;2.05;;
41293;SDS011;27037;52.010;4.446;2022-10-16T12:17:58;15.63;;;2.33;;
41293;SDS011;27037;52.010;4.446;2022-10-16T12:25:32;11.32;;;1.95;;
41293;SDS011;27037;52.010;4.446;2022-10-16T12:30:32;11.45;;;1.90;;
41293;SDS011;27037;52.010;4.446;2022-10-16T12:33:01;15.45;;;2.70;;
41293;SDS011;27037;52.010;4.446;2022-10-16T12:35:30;12.77;;;2.00;;
41293;SDS011;27037;52.010;4.446;2022-10-16T12:41:04;13.02;;;1.83;;
41293;SDS011;27037;52.010;4.446;2022-10-16T12:43:36;14.45;;;1.95;;
41293;SDS011;27037;52.010;4.446;2022-10-16T12:48:35;15.55;;;2.42;;
41293;SDS011;27037;52.010;4.446;2022-10-16T12:51:09;11.18;;;1.77;;
41293;SDS011;27037;52.010;4.446;2022-10-16T12:53:35;13.88;;;2.15;;
41293;SDS011;27037;52.010;4.446;2022-10-16T12:58:45;17.60;;;2.38;;
41293;SDS011;27037;52.010;4.446;2022-10-16T13:01:37;15.05;;;2.35;;
41293;SDS011;27037;52.010;4.446;2022-10-16T13:04:12;13.13;;;1.90;;
41293;SDS011;27037;52.010;4.446;2022-10-16T13:12:30;16.33;;;1.83;;
41293;SDS011;27037;52.010;4.446;2022-10-16T13:17:52;10.90;;;1.85;;
41293;SDS011;27037;52.010;4.446;2022-10-16T13:20:35;11.73;;;2.00;;
41293;SDS011;27037;52.010;4.446;2022-10-16T13:25:46;8.90;;;1.75;;
41293;SDS011;27037;52.010;4.446;2022-10-16T13:28:17;14.90;;;2.10;;
41293;SDS011;27037;52.010;4.446;2022-10-16T13:30:51;12.95;;;2.30;;
41293;SDS011;27037;52.010;4.446;2022-10-16T13:36:18;14.20;;;2.58;;
41293;SDS011;27037;52.010;4.446;2022-10-16T13:38:48;16.75;;;2.55;;
41293;SDS011;27037;52.010;4.446;2022-10-16T13:41:42;12.45;;;2.20;;
41293;SDS011;27037;52.010;4.446;2022-10-16T13:44:18;17.58;;;2.28;;
41293;SDS011;27037;52.010;4.446;2022-10-16T13:46:46;13.85;;;2.63;;
41293;SDS011;27037;52.010;4.446;2022-10-16T13:49:15;13.30;;;2.20;;
41293;SDS011;27037;52.010;4.446;2022-10-16T13:51:53;14.93;;;2.38;;
41293;SDS011;27037;52.010;4.446;2022-10-16T13:54:19;14.48;;;2.20;;
41293;SDS011;27037;52.010;4.446;2022-10-16T13:56:45;19.90;;;2.58;;
41293;SDS011;27037;52.010;4.446;2022-10-16T13:59:27;13.85;;;2.50;;
41293;SDS011;27037;52.010;4.446;2022-10-16T14:01:58;12.15;;;2.10;;
41293;SDS011;27037;52.010;4.446;2022-10-16T14:04:31;15.40;;;2.72;;
41293;SDS011;27037;52.010;4.446;2022-10-16T14:06:58;14.60;;;2.10;;
41293;SDS011;27037;52.010;4.446;2022-10-16T14:09:24;11.73;;;2.47;;
41293;SDS011;27037;52.010;4.446;2022-10-16T14:11:56;14.18;;;2.90;;
41293;SDS011;27037;52.010;4.446;2022-10-16T14:14:31;13.88;;;2.45;;
41293;SDS011;27037;52.010;4.446;2022-10-16T14:17:00;12.18;;;2.10;;
41293;SDS011;27037;52.010;4.446;2022-10-16T14:19:28;10.93;;;2.05;;
41293;SDS011;27037;52.010;4.446;2022-10-16T14:21:55;11.95;;;2.20;;
41293;SDS011;27037;52.010;4.446;2022-10-16T14:24:25;13.18;;;2.42;;
41293;SDS011;27037;52.010;4.446;2022-10-16T14:26:56;9.33;;;1.83;;
41293;SDS011;27037;52.010;4.446;2022-10-16T14:29:23;15.95;;;2.63;;
41293;SDS011;27037;52.010;4.446;2022-10-16T14:32:05;15.70;;;2.47;;
41293;SDS011;27037;52.010;4.446;2022-10-16T14:34:52;15.40;;;2.57;;
41293;SDS011;27037;52.010;4.446;2022-10-16T14:39:54;12.30;;;2.22;;
41293;SDS011;27037;52.010;4.446;2022-10-16T14:42:21;15.98;;;2.50;;
41293;SDS011;27037;52.010;4.446;2022-10-16T14:44:50;15.98;;;2.38;;
41293;SDS011;27037;52.010;4.446;2022-10-16T14:47:21;17.67;;;2.20;;
41293;SDS011;27037;52.010;4.446;2022-10-16T14:49:51;16.17;;;2.10;;
41293;SDS011;27037;52.010;4.446;2022-10-16T14:52:20;12.93;;;2.08;;
41293;SDS011;27037;52.010;4.446;2022-10-16T14:54:49;14.70;;;2.30;;
41293;SDS011;27037;52.010;4.446;2022-10-16T14:57:16;17.80;;;2.65;;
41293;SDS011;27037;52.010;4.446;2022-10-16T14:59:44;15.93;;;2.30;;
41293;SDS011;27037;52.010;4.446;2022-10-16T15:04:39;13.32;;;2.90;;
41293;SDS011;27037;52.010;4.446;2022-10-16T15:07:06;15.00;;;2.90;;
41293;SDS011;27037;52.010;4.446;2022-10-16T15:09:32;14.40;;;2.42;;
41293;SDS011;27037;52.010;4.446;2022-10-16T15:11:58;13.98;;;2.60;;
41293;SDS011;27037;52.010;4.446;2022-10-16T15:14:23;15.60;;;2.55;;
41293;SDS011;27037;52.010;4.446;2022-10-16T15:16:49;16.17;;;2.58;;
41293;SDS011;27037;52.010;4.446;2022-10-16T15:19:15;13.70;;;2.10;;
41293;SDS011;27037;52.010;4.446;2022-10-16T15:21:40;12.07;;;2.17;;
41293;SDS011;27037;52.010;4.446;2022-10-16T15:24:11;13.00;;;2.65;;
41293;SDS011;27037;52.010;4.446;2022-10-16T15:26:37;10.82;;;2.65;;
41293;SDS011;27037;52.010;4.446;2022-10-16T15:29:03;17.10;;;2.60;;
41293;SDS011;27037;52.010;4.446;2022-10-16T15:31:29;14.98;;;2.38;;
41293;SDS011;27037;52.010;4.446;2022-10-16T15:33:55;16.25;;;2.90;;
41293;SDS011;27037;52.010;4.446;2022-10-16T15:36:33;13.55;;;2.75;;
41293;SDS011;27037;52.010;4.446;2022-10-16T15:39:05;17.92;;;2.78;;
41293;SDS011;27037;52.010;4.446;2022-10-16T15:41:39;11.90;;;2.65;;
41293;SDS011;27037;52.010;4.446;2022-10-16T15:44:04;15.40;;;3.10;;
41293;SDS011;27037;52.010;4.446;2022-10-16T15:46:30;16.73;;;3.28;;
41293;SDS011;27037;52.010;4.446;2022-10-16T15:48:56;18.13;;;3.67;;
41293;SDS011;27037;52.010;4.446;2022-10-16T15:51:23;12.60;;;3.55;;
41293;SDS011;27037;52.010;4.446;2022-10-16T15:53:50;14.60;;;3.50;;
41293;SDS011;27037;52.010;4.446;2022-10-16T15:56:16;16.48;;;3.53;;
41293;SDS011;27037;52.010;4.446;2022-10-16T15:58:42;15.13;;;3.85;;
41293;SDS011;27037;52.010;4.446;2022-10-16T16:01:08;13.27;;;3.38;;
41293;SDS011;27037;52.010;4.446;2022-10-16T16:03:36;13.57;;;3.95;;
41293;SDS011;27037;52.010;4.446;2022-10-16T16:06:06;17.20;;;4.18;;
41293;SDS011;27037;52.010;4.446;2022-10-16T16:08:33;17.02;;;4.20;;
41293;SDS011;27037;52.010;4.446;2022-10-16T16:10:59;10.27;;;3.15;;
41293;SDS011;27037;52.010;4.446;2022-10-16T16:13:27;12.90;;;2.85;;
41293;SDS011;27037;52.010;4.446;2022-10-16T16:15:52;13.38;;;3.20;;
41293;SDS011;27037;52.010;4.446;2022-10-16T16:18:18;14.07;;;2.90;;
41293;SDS011;27037;52.010;4.446;2022-10-16T16:20:44;13.90;;;3.08;;
41293;SDS011;27037;52.010;4.446;2022-10-16T16:23:09;13.73;;;2.85;;
41293;SDS011;27037;52.010;4.446;2022-10-16T16:25:35;17.80;;;3.05;;
41293;SDS011;27037;52.010;4.446;2022-10-16T16:28:01;14.85;;;2.90;;
41293;SDS011;27037;52.010;4.446;2022-10-16T16:30:26;17.95;;;3.50;;
41293;SDS011;27037;52.010;4.446;2022-10-16T16:32:52;14.18;;;3.10;;
41293;SDS011;27037;52.010;4.446;2022-10-16T16:35:18;14.55;;;3.45;;
41293;SDS011;27037;52.010;4.446;2022-10-16T16:37:43;15.75;;;3.72;;
41293;SDS011;27037;52.010;4.446;2022-10-16T16:40:09;17.40;;;3.53;;
41293;SDS011;27037;52.010;4.446;2022-10-16T16:42:34;14.77;;;3.80;;
41293;SDS011;27037;52.010;4.446;2022-10-16T16:45:00;15.88;;;3.78;;
41293;SDS011;27037;52.010;4.446;2022-10-16T16:47:25;10.85;;;3.33;;
41293;SDS011;27037;52.010;4.446;2022-10-16T16:49:51;15.65;;;3.80;;
41293;SDS011;27037;52.010;4.446;2022-10-16T16:52:17;15.95;;;4.20;;
41293;SDS011;27037;52.010;4.446;2022-10-16T16:54:42;15.70;;;3.80;;
41293;SDS011;27037;52.010;4.446;2022-10-16T16:57:09;12.80;;;4.00;;
41293;SDS011;27037;52.010;4.446;2022-10-16T16:59:35;19.75;;;4.25;;
41293;SDS011;27037;52.010;4.446;2022-10-16T17:02:02;19.35;;;4.03;;
41293;SDS011;27037;52.010;4.446;2022-10-16T17:04:28;18.27;;;3.63;;
41293;SDS011;27037;52.010;4.446;2022-10-16T17:06:54;17.25;;;4.55;;
41293;SDS011;27037;52.010;4.446;2022-10-16T17:09:20;18.15;;;4.57;;
41293;SDS011;27037;52.010;4.446;2022-10-16T17:11:47;18.30;;;4.32;;